Terminal Aerodrome Forecast
Issued by NWS Twin Cities, MN

Home | Current Version | Previous Version | Graphics & Text | Print | Product List | Glossary On
Versions: 1 2 3 4 5 6 7 8 9 10 11 12 13 14 15 16 17 18 19 20 21 22 23 24
596
FTUS43 KMPX 241126
TAFMSP
TAF
KMSP 241126Z 2412/2518 15010KT P6SM BKN250
     FM241500 16015G28KT P6SM BKN200
     FM242200 17011KT P6SM OVC080
     FM250300 17008KT P6SM OVC050
     FM251000 22005KT P6SM OVC040
     FM251400 33007KT P6SM OVC025=

USA.gov is the U.S. government's official web portal to all federal, state and local government web resources and services.